Aviation Digital Data Service (ADDS)

Output produced by METARs form (1853 UTC 14 December 2018)
found at http://www.aviationweather.gov/metar/data/
 
METAR text: EPWA 141830Z 06006KT 030V090 9999 -RASN SCT009 BKN021 01/M01 Q1027 TEMPO BKN009
Conditions at: EPWA (WARSAW/OKECIE , PL) observed 1830 UTC 14 December 2018
Temperature: 1.0°C (34°F)
Dewpoint: -1.0°C (30°F) [RH = 86%]
Pressure (altimeter): 30.32 inches Hg (1027.0 mb)
Winds: from the ENE (60 degrees) at 7 MPH (6 knots; 3.1 m/s)
Visibility: 6 or more miles (10+ km)
Ceiling: 2100 feet AGL
Clouds: scattered clouds at 900 feet AGL
broken clouds at 2100 feet AGL
Weather: -RA -SN  (light rain, light snow)

METAR text: EPWA 141800Z 06006KT 9999 -RASN FEW008 BKN021 01/M01 Q1027 TEMPO BKN009
Conditions at: EPWA (WARSAW/OKECIE , PL) observed 1800 UTC 14 December 2018
Temperature: 1.0°C (34°F)
Dewpoint: -1.0°C (30°F) [RH = 86%]
Pressure (altimeter): 30.32 inches Hg (1027.0 mb)
Winds: from the ENE (60 degrees) at 7 MPH (6 knots; 3.1 m/s)
Visibility: 6 or more miles (10+ km)
Ceiling: 2100 feet AGL
Clouds: few clouds at 800 feet AGL
broken clouds at 2100 feet AGL
Weather: -RA -SN  (light rain, light snow)

Forecast for: EPWA (WARSAW/OKECIE , PL)
Text: TAF EPWA 141730Z 1418/1518 07005KT 9999 -SN BKN018
Forecast period: 1800 UTC 14 December 2018 to 1800 UTC 15 December 2018
Forecast type: FROM: standard forecast or significant change
Winds: from the ENE (70 degrees) at 6 MPH (5 knots; 2.6 m/s)
Visibility: 6 or more miles 10+ km)
Ceiling: 1800 feet AGL
Clouds: broken clouds at 1800 feet AGL
Weather: -SN  (light snow)
Text: TEMPO 1418/1518 4000 -SNRA BR BKN008 BKN012
Forecast period: 1800 UTC 14 December 2018 to 1800 UTC 15 December 2018
Forecast type: TEMPORARY: The following changes expected for less than half the time period
Visibility: 2.49 miles (4.01 km)
Ceiling: 800 feet AGL
Clouds: broken clouds at 800 feet AGL
broken clouds at 1200 feet AGL
Weather: -SN -RA BR  (light snow, light rain, mist)